Meteo Giornale » Osservazioni meteo Italia » Trieste

ore: 11:55 - Osservazioni Meteo Trieste
Lat. 45° 39' N Lon. 13° 45' E Alt. 8 metri s.l.m.

sereno Europe/Rome

25 °C

Sereno

Temp. 24 Ore

20 °C

30 °C

Ovest/Nord-Ovest

7.4 Km/h

Dew point 13 °C

Umidità 47 %

Visibilità  10 Km

Il sole sorge alle ore 05:39

Il sole tramonta alle ore 20:43

Data e Ora Cielo e Fenomeni T °C DP °C Um. % Pres. hPa Vis. km Vento km/h
Oggi h: 11:55 sereno Sereno 25 13 47 1004 10 O/NO 7.4
Oggi h: 10:55 sereno Sereno 25 13 47 1004 10 N 5.5
Oggi h: 09:55 sereno Sereno 25 13 47 1004 10 N 3.7
Oggi h: 08:55 sereno Sereno 24 8 35 1004 10 N 3.7
Oggi h: 07:55 sereno Sereno 22 9 43 1004 10 N 3.7
Oggi h: 06:55 sereno Sereno 20 9 49 1004 10 NE 11.1
Oggi h: 05:55 sereno Sereno 20 11 56 1003 10 O/SO 9.3
Oggi h: 04:55 sereno Sereno 20 10 52 1003 10 N 5.5
Oggi h: 03:55 sereno Sereno 21 10 49 1003 10 E/NE 11.1
Oggi h: 02:55 sereno Sereno 21 10 49 1003 10 N 5.5
Oggi h: 01:55 sereno Sereno 20 10 52 1003 10 NE 9.3
Oggi h: 00:55 sereno Sereno 20 12 59 1003 10 N 3.7
Ieri h: 23:55 sereno Sereno 21 14 64 1003 10 N 1.8
Ieri h: 22:55 sereno Sereno 21 15 68 1002 10 E/NE 7.4
Ieri h: 21:55 sereno Sereno 20 16 77 1003 10 E/NE 7.4
Ieri h: 20:55 sereno Sereno 21 15 68 1002 10 N 0
Ieri h: 19:55 sereno Sereno 21 17 77 1002 10 E/NE 11.1
Ieri h: 18:55 poco_nuvoloso Poco Nuvoloso 20 18 88 1003 10 NE 16.7
Ieri h: 17:55 nuvoloso_temporali Temporale con Pioggia Debole 21 19 88 1004 8 N 1.8
Ieri h: 16:55 coperto Coperto 24 20 78 1003 10 O/SO 35.2
Ieri h: 15:55 molto_nuvoloso Molto Nuvoloso 29 19 54 1002 10 N 5.5
Ieri h: 14:55 poco_nuvoloso Poco Nuvoloso 30 20 55 1002 10 N 0
Ieri h: 13:55 poco_nuvoloso Poco Nuvoloso 29 20 58 1004 10 N 0
Ieri h: 12:55 poco_nuvoloso Poco Nuvoloso 28 21 65 1005 10 N 1.8